Time;durP1;ratioP1;P1;durP2;ratioP2;P2;SDS_P1;SDS_P2;PMS_P1;PMS_P2;Temp;Humidity;BMP_temperature;BMP_pressure;BME280_temperature;BME280_humidity;BME280_pressure;Samples;Min_cycle;Max_cycle;Signal;HPM_P1;HPM_P2
2023/01/09 00:00:10;;;;;;;13.23;3.58;;;14.90;99.90;;;;;;5050130;28;20057;-69
2023/01/09 00:03:17;;;;;;;10.85;3.25;;;14.90;99.90;;;;;;5050079;28;20052;-69
2023/01/09 00:06:21;;;;;;;17.20;3.83;;;14.90;99.90;;;;;;5050758;28;20337;-69
2023/01/09 00:09:24;;;;;;;15.90;3.88;;;14.90;99.90;;;;;;5050294;28;20048;-69
2023/01/09 00:12:28;;;;;;;8.73;2.97;;;14.90;99.90;;;;;;5049960;28;20507;-68
2023/01/09 00:15:32;;;;;;;10.75;3.50;;;14.90;99.90;;;;;;5050161;28;20040;-68
2023/01/09 00:18:36;;;;;;;12.68;3.90;;;14.90;99.90;;;;;;5050560;28;20061;-69
2023/01/09 00:21:40;;;;;;;12.95;3.55;;;14.90;99.90;;;;;;5050580;28;20059;-69
2023/01/09 00:24:45;;;;;;;16.92;4.40;;;14.90;99.90;;;;;;5050301;28;20515;-69
2023/01/09 00:27:49;;;;;;;11.30;5.15;;;14.90;99.90;;;;;;5050771;28;20052;-69
2023/01/09 00:30:57;;;;;;;12.60;4.53;;;14.80;99.90;;;;;;5050505;28;20519;-69
2023/01/09 00:34:06;;;;;;;11.63;4.93;;;14.80;99.90;;;;;;5050734;28;20039;-70
2023/01/09 00:37:12;;;;;;;17.05;5.95;;;14.80;99.90;;;;;;5050532;28;20048;-69
2023/01/09 00:40:18;;;;;;;8.63;4.75;;;14.80;99.90;;;;;;5050275;28;20044;-69
2023/01/09 00:43:25;;;;;;;16.40;5.10;;;14.70;99.90;;;;;;5050251;28;20037;-69
2023/01/09 00:46:35;;;;;;;13.25;6.13;;;14.60;99.90;;;;;;5050278;28;20048;-69
2023/01/09 00:49:41;;;;;;;14.68;5.82;;;14.60;99.90;;;;;;5050300;28;20048;-70
2023/01/09 00:52:45;;;;;;;14.50;5.65;;;14.60;99.90;;;;;;5050583;28;20052;-69
2023/01/09 00:55:50;;;;;;;15.88;4.40;;;14.60;99.90;;;;;;5050079;28;20048;-69
2023/01/09 00:58:54;;;;;;;12.15;5.00;;;14.50;99.90;;;;;;5050148;28;20044;-70
2023/01/09 01:01:58;;;;;;;15.07;4.93;;;14.40;99.90;;;;;;5050172;28;20040;-70
2023/01/09 01:08:25;;;;;;;9.30;4.40;;;14.50;99.90;;;;;;5049107;28;20507;-69
2023/01/09 01:11:33;;;;;;;8.68;4.20;;;14.40;99.90;;;;;;5050021;28;20056;-69
2023/01/09 01:14:37;;;;;;;13.93;5.15;;;14.40;99.90;;;;;;5050274;28;20059;-69
2023/01/09 01:17:42;;;;;;;10.88;5.18;;;14.40;99.90;;;;;;5050418;28;20039;-69
2023/01/09 01:20:45;;;;;;;13.25;4.88;;;14.40;99.90;;;;;;5052590;28;20043;-69
2023/01/09 01:23:50;;;;;;;19.30;5.93;;;14.40;99.90;;;;;;5053242;28;20396;-68
2023/01/09 01:26:54;;;;;;;16.48;5.28;;;13.30;99.90;;;;;;5053821;28;20499;-68
2023/01/09 01:29:58;;;;;;;13.25;5.10;;;14.40;99.90;;;;;;5052462;28;20071;-70
2023/01/09 01:33:02;;;;;;;15.98;4.95;;;14.30;99.90;;;;;;5053310;28;20036;-69
2023/01/09 01:36:07;;;;;;;11.10;5.30;;;14.40;99.90;;;;;;5053615;28;20048;-70
2023/01/09 01:39:12;;;;;;;15.68;5.32;;;14.40;99.90;;;;;;5053399;28;20044;-69
2023/01/09 01:42:15;;;;;;;13.43;4.95;;;14.40;99.90;;;;;;5053507;28;20040;-68
2023/01/09 01:45:27;;;;;;;12.07;4.50;;;14.40;99.90;;;;;;5053413;28;20179;-69
2023/01/09 01:48:31;;;;;;;15.23;4.57;;;14.40;99.90;;;;;;5053356;28;20048;-70
2023/01/09 01:51:48;;;;;;;17.25;4.60;;;14.40;99.90;;;;;;5052273;28;20056;-69
2023/01/09 01:54:54;;;;;;;15.13;4.70;;;14.50;99.90;;;;;;5053253;28;20048;-70
2023/01/09 01:58:02;;;;;;;13.43;4.13;;;14.50;99.90;;;;;;5053209;28;20048;-70
2023/01/09 02:01:08;;;;;;;13.77;4.13;;;14.50;99.90;;;;;;5053290;28;20040;-69
2023/01/09 02:04:12;;;;;;;14.88;4.63;;;14.60;99.90;;;;;;5052982;28;20036;-70
2023/01/09 02:07:16;;;;;;;20.77;4.78;;;14.60;99.90;;;;;;5052862;28;20047;-69
2023/01/09 02:10:23;;;;;;;12.57;4.75;;;14.60;99.90;;;;;;5052608;28;20056;-69
2023/01/09 02:13:28;;;;;;;16.23;4.15;;;16.20;99.90;;;;;;5052937;28;20048;-70
2023/01/09 02:16:41;;;;;;;16.65;4.20;;;14.60;99.90;;;;;;5052827;28;20047;-69
2023/01/09 02:20:23;;;;;;;17.92;4.93;;;14.60;99.90;;;;;;5052703;28;20048;-69
2023/01/09 02:23:30;;;;;;;18.15;4.40;;;14.60;99.90;;;;;;5052870;28;20503;-69
2023/01/09 02:26:40;;;;;;;20.08;4.88;;;14.60;99.90;;;;;;5052778;28;20043;-69
2023/01/09 02:30:08;;;;;;;16.63;4.57;;;14.60;99.90;;;;;;5052584;28;20047;-69
2023/01/09 02:33:39;;;;;;;15.15;4.78;;;14.60;99.90;;;;;;5052714;28;20052;-69
2023/01/09 02:36:59;;;;;;;16.70;5.50;;;14.60;99.90;;;;;;5052540;28;20048;-69
2023/01/09 02:40:21;;;;;;;13.65;4.88;;;14.50;99.90;;;;;;5052250;28;20064;-69
2023/01/09 02:43:25;;;;;;;18.65;5.40;;;14.50;99.90;;;;;;5051723;28;20044;-69
2023/01/09 02:46:29;;;;;;;13.35;4.40;;;14.50;99.90;;;;;;5052301;28;20508;-69
2023/01/09 02:49:36;;;;;;;14.95;4.88;;;14.40;99.90;;;;;;5052145;28;20043;-69
2023/01/09 02:52:59;;;;;;;17.27;5.47;;;14.40;99.90;;;;;;5052321;28;20056;-69
2023/01/09 02:56:21;;;;;;;15.13;4.78;;;14.40;99.90;;;;;;5051931;28;20040;-69
2023/01/09 02:59:35;;;;;;;13.50;4.70;;;14.40;99.90;;;;;;5051166;28;20055;-69
2023/01/09 03:02:49;;;;;;;14.43;4.20;;;14.30;99.90;;;;;;5051981;28;20043;-69
2023/01/09 03:06:06;;;;;;;16.15;4.35;;;14.30;99.90;;;;;;5051977;28;20040;-69
2023/01/09 03:09:19;;;;;;;17.42;5.45;;;14.30;99.90;;;;;;5051530;28;20052;-70
2023/01/09 03:12:26;;;;;;;15.68;4.57;;;14.20;99.90;;;;;;5051970;28;20396;-68
2023/01/09 03:15:35;;;;;;;17.75;5.43;;;14.30;99.90;;;;;;5051631;28;20115;-69
2023/01/09 03:18:41;;;;;;;14.23;4.43;;;14.10;99.90;;;;;;5050896;28;20036;-69
2023/01/09 03:21:46;;;;;;;16.05;5.05;;;14.20;99.90;;;;;;5051794;28;20392;-69
2023/01/09 03:24:50;;;;;;;22.20;6.07;;;14.20;99.90;;;;;;5051594;28;20052;-69
2023/01/09 03:28:00;;;;;;;13.25;4.93;;;14.20;99.90;;;;;;5051415;28;20040;-68
2023/01/09 03:31:04;;;;;;;26.05;6.35;;;14.20;99.90;;;;;;5050296;28;20056;-69
2023/01/09 03:34:08;;;;;;;28.02;5.47;;;14.20;99.90;;;;;;5051596;28;20036;-69
2023/01/09 03:37:12;;;;;;;19.30;6.13;;;14.20;99.90;;;;;;5051538;28;20067;-67
2023/01/09 03:40:18;;;;;;;19.30;5.28;;;14.20;99.90;;;;;;5051341;28;20044;-70
2023/01/09 03:43:22;;;;;;;14.27;4.45;;;14.20;99.90;;;;;;5050835;28;20044;-68
2023/01/09 03:46:26;;;;;;;16.35;4.22;;;14.10;99.90;;;;;;5052198;28;20077;-69
2023/01/09 03:49:30;;;;;;;7.50;3.50;;;14.20;99.90;;;;;;5051045;28;20060;-70
2023/01/09 03:52:34;;;;;;;15.95;3.88;;;14.10;99.90;;;;;;5051353;28;20534;-70
2023/01/09 03:55:50;;;;;;;11.30;3.35;;;14.00;99.90;;;;;;5051332;28;20048;-69
2023/01/09 03:58:55;;;;;;;12.50;3.78;;;13.90;99.90;;;;;;5051329;28;20044;-69
2023/01/09 04:01:59;;;;;;;11.60;3.90;;;14.00;99.90;;;;;;5051323;28;20119;-68
2023/01/09 04:05:03;;;;;;;13.88;3.38;;;13.30;99.90;;;;;;5051307;28;20034;-69
2023/01/09 04:08:06;;;;;;;9.77;3.10;;;13.90;99.90;;;;;;5050591;28;20060;-69
2023/01/09 04:11:10;;;;;;;9.63;3.60;;;13.90;99.90;;;;;;5050535;28;20056;-69
2023/01/09 04:14:15;;;;;;;12.20;3.60;;;13.80;99.90;;;;;;5050589;28;20044;-68
2023/01/09 04:17:19;;;;;;;6.15;2.88;;;13.90;99.90;;;;;;5049831;28;20052;-68
2023/01/09 04:20:22;;;;;;;7.43;2.40;;;13.80;99.90;;;;;;5050642;28;20045;-69
2023/01/09 04:23:26;;;;;;;9.98;2.72;;;16.10;99.90;;;;;;5050422;28;20044;-69
2023/01/09 04:26:30;;;;;;;11.35;3.20;;;14.60;99.90;;;;;;5050637;28;20043;-69
2023/01/09 04:29:34;;;;;;;15.95;4.00;;;13.50;99.90;;;;;;5050673;28;20048;-68
2023/01/09 04:32:38;;;;;;;15.25;4.40;;;13.90;99.90;;;;;;5050398;28;20052;-69
2023/01/09 04:35:42;;;;;;;14.50;4.72;;;13.90;99.90;;;;;;5050543;28;20044;-69
2023/01/09 04:38:46;;;;;;;15.75;5.40;;;13.90;99.90;;;;;;5050518;28;20043;-68
2023/01/09 04:41:50;;;;;;;12.57;4.38;;;14.00;99.90;;;;;;5050404;28;20064;-68
2023/01/09 04:44:54;;;;;;;13.18;3.58;;;13.90;99.90;;;;;;5050200;28;20040;-69
2023/01/09 04:47:58;;;;;;;11.73;3.20;;;13.90;99.90;;;;;;5050412;28;20384;-69
2023/01/09 04:51:02;;;;;;;9.88;3.10;;;12.50;99.90;;;;;;5050366;28;20480;-69
2023/01/09 04:54:06;;;;;;;10.13;3.15;;;13.90;99.90;;;;;;5051877;28;20056;-70
2023/01/09 04:57:11;;;;;;;11.07;3.40;;;14.10;99.90;;;;;;5054773;28;20623;-69
2023/01/09 05:00:15;;;;;;;9.55;4.28;;;13.90;99.90;;;;;;5054460;28;20052;-69
2023/01/09 05:03:20;;;;;;;16.05;4.95;;;13.90;99.90;;;;;;5054276;28;20052;-68
2023/01/09 05:06:23;;;;;;;22.27;5.35;;;13.90;99.90;;;;;;5053213;28;20048;-69
2023/01/09 05:09:28;;;;;;;16.60;5.20;;;14.00;99.90;;;;;;5053993;28;20389;-69
2023/01/09 05:12:35;;;;;;;15.63;5.25;;;13.90;99.90;;;;;;5053807;28;20052;-69
2023/01/09 05:15:39;;;;;;;14.05;4.82;;;13.30;99.90;;;;;;5053964;28;20048;-68
2023/01/09 05:18:43;;;;;;;12.27;5.15;;;14.10;99.90;;;;;;5053928;28;20056;-70
2023/01/09 05:21:47;;;;;;;20.95;5.00;;;14.10;99.90;;;;;;5053727;28;20044;-70
2023/01/09 05:24:51;;;;;;;16.08;4.90;;;14.20;99.90;;;;;;5053875;28;20051;-68
2023/01/09 05:27:55;;;;;;;14.77;4.93;;;15.90;99.90;;;;;;5053730;28;20044;-69
2023/01/09 05:30:59;;;;;;;18.30;5.07;;;14.30;99.90;;;;;;5052918;28;20056;-69
2023/01/09 05:34:03;;;;;;;18.70;4.90;;;13.50;99.90;;;;;;5053553;28;20040;-69
2023/01/09 05:37:09;;;;;;;19.50;5.07;;;14.30;99.90;;;;;;5053692;28;20051;-70
2023/01/09 05:40:14;;;;;;;15.40;4.50;;;17.70;99.90;;;;;;5053613;28;20392;-70
2023/01/09 05:43:18;;;;;;;14.10;4.32;;;13.10;99.90;;;;;;5053516;28;20414;-68
2023/01/09 05:46:21;;;;;;;21.92;5.25;;;14.40;99.90;;;;;;5053447;28;20047;-68
2023/01/09 05:49:28;;;;;;;27.52;7.38;;;14.50;99.90;;;;;;5053363;28;20048;-69
2023/01/09 05:52:32;;;;;;;25.33;5.55;;;14.40;99.90;;;;;;5053292;28;20056;-69
2023/01/09 05:55:36;;;;;;;29.05;7.13;;;14.40;99.90;;;;;;5053389;28;20052;-68
2023/01/09 05:58:40;;;;;;;28.98;6.90;;;14.40;99.90;;;;;;5053220;28;20404;-69
2023/01/09 06:01:44;;;;;;;23.60;5.78;;;14.40;99.90;;;;;;5053445;28;20044;-69
2023/01/09 06:04:48;;;;;;;29.25;6.35;;;14.40;99.90;;;;;;5053232;28;20048;-68
2023/01/09 06:07:52;;;;;;;27.35;5.95;;;14.40;99.90;;;;;;5053040;28;20060;-68
2023/01/09 06:10:59;;;;;;;22.90;5.38;;;14.40;99.90;;;;;;5052496;28;20040;-69
2023/01/09 06:14:04;;;;;;;25.27;6.25;;;14.40;99.90;;;;;;5053281;28;20052;-68
2023/01/09 06:17:09;;;;;;;26.27;7.30;;;14.50;99.90;;;;;;5053542;28;20048;-69
2023/01/09 06:20:14;;;;;;;29.48;7.68;;;14.50;99.90;;;;;;5053328;28;20388;-69
2023/01/09 06:23:18;;;;;;;37.63;7.10;;;14.50;99.90;;;;;;5052991;28;20503;-69
2023/01/09 06:26:22;;;;;;;36.80;8.43;;;14.50;99.90;;;;;;5053278;28;20044;-68
2023/01/09 06:29:26;;;;;;;34.38;8.02;;;14.50;99.90;;;;;;5053076;28;20048;-69
2023/01/09 06:32:33;;;;;;;25.35;7.05;;;14.50;99.90;;;;;;5052529;28;20133;-69
2023/01/09 06:35:38;;;;;;;31.17;6.85;;;14.40;99.90;;;;;;5053004;28;20044;-74
2023/01/09 06:38:42;;;;;;;25.33;7.80;;;14.50;99.90;;;;;;5052792;28;20127;-74
2023/01/09 06:41:46;;;;;;;30.42;7.50;;;14.50;99.90;;;;;;5052338;28;20044;-73
2023/01/09 06:44:50;;;;;;;26.90;7.70;;;14.60;99.90;;;;;;5052637;28;20048;-73
2023/01/09 06:47:54;;;;;;;25.90;7.63;;;14.60;99.90;;;;;;5052615;28;20048;-73
2023/01/09 06:50:57;;;;;;;31.83;8.32;;;14.60;99.90;;;;;;5052539;28;20412;-73
2023/01/09 06:54:01;;;;;;;37.50;9.05;;;14.60;99.90;;;;;;5052479;28;20483;-74
2023/01/09 06:57:05;;;;;;;32.38;9.55;;;14.70;99.90;;;;;;5051705;28;20071;-73
2023/01/09 07:00:10;;;;;;;31.73;8.38;;;14.70;99.90;;;;;;5052563;28;20044;-75
2023/01/09 07:03:18;;;;;;;30.58;8.57;;;14.70;99.90;;;;;;5052216;28;20499;-74
2023/01/09 07:06:22;;;;;;;32.47;7.82;;;14.70;99.90;;;;;;5052301;28;20388;-73
2023/01/09 07:09:26;;;;;;;28.35;8.10;;;14.70;99.90;;;;;;5052367;28;20056;-73
2023/01/09 07:12:30;;;;;;;23.55;7.75;;;14.80;99.90;;;;;;5051906;28;20075;-71
2023/01/09 07:15:35;;;;;;;32.72;9.38;;;14.80;99.90;;;;;;5052256;28;20397;-70
2023/01/09 07:18:39;;;;;;;37.10;9.57;;;14.80;99.90;;;;;;5050888;28;20055;-70
2023/01/09 07:21:43;;;;;;;34.85;8.13;;;14.80;99.90;;;;;;5050769;28;20048;-71
2023/01/09 07:24:49;;;;;;;33.55;8.55;;;14.80;99.90;;;;;;5051928;28;20048;-72
2023/01/09 07:27:53;;;;;;;31.23;7.30;;;14.90;99.90;;;;;;5051930;28;20045;-73
2023/01/09 07:31:01;;;;;;;28.50;7.88;;;14.90;99.90;;;;;;5051786;28;20051;-73
2023/01/09 07:34:05;;;;;;;23.48;6.43;;;14.90;99.90;;;;;;5051707;28;20052;-73
2023/01/09 07:37:09;;;;;;;26.30;7.75;;;15.00;99.90;;;;;;5050969;28;20044;-75
2023/01/09 07:40:14;;;;;;;30.25;6.72;;;15.00;99.90;;;;;;5051410;28;20502;-72
2023/01/09 07:43:17;;;;;;;42.80;8.80;;;15.00;99.90;;;;;;5051411;28;20044;-73
2023/01/09 07:46:22;;;;;;;41.60;8.35;;;15.10;99.90;;;;;;5051749;28;20052;-72
2023/01/09 07:49:26;;;;;;;55.40;9.68;;;15.10;99.90;;;;;;5051336;28;20040;-70
2023/01/09 07:52:29;;;;;;;51.03;11.05;;;15.10;99.90;;;;;;5051273;28;20404;-70
2023/01/09 07:55:33;;;;;;;54.47;10.15;;;15.20;99.90;;;;;;5051290;28;20039;-70
2023/01/09 07:58:38;;;;;;;57.65;11.80;;;15.20;99.90;;;;;;5051339;28;20064;-67
2023/01/09 08:01:43;;;;;;;56.42;9.98;;;15.20;99.90;;;;;;5051241;28;20047;-71
2023/01/09 08:04:47;;;;;;;45.03;8.80;;;15.20;99.90;;;;;;5051099;28;20396;-73
2023/01/09 08:07:50;;;;;;;54.35;10.25;;;15.20;99.90;;;;;;5050972;28;20052;-71
2023/01/09 08:10:54;;;;;;;57.88;10.27;;;15.20;99.90;;;;;;5050994;28;20836;-73
2023/01/09 08:13:58;;;;;;;56.13;9.20;;;15.20;99.90;;;;;;5050712;28;20040;-71
2023/01/09 08:17:02;;;;;;;54.42;10.55;;;15.10;99.90;;;;;;5051143;28;20396;-73
2023/01/09 08:20:07;;;;;;;40.78;9.02;;;15.20;99.90;;;;;;5050758;28;20048;-74
2023/01/09 08:23:11;;;;;;;51.50;9.20;;;15.20;99.90;;;;;;5049797;28;20052;-70
2023/01/09 08:26:17;;;;;;;35.72;7.53;;;15.20;99.90;;;;;;5051379;28;20048;-72
2023/01/09 08:29:21;;;;;;;52.65;11.57;;;15.20;99.90;;;;;;5050389;28;20044;-75
2023/01/09 08:32:25;;;;;;;43.28;8.13;;;15.20;99.90;;;;;;5051131;28;20054;-72
2023/01/09 08:35:29;;;;;;;44.70;9.85;;;15.20;99.90;;;;;;5050382;28;20111;-76
2023/01/09 08:38:34;;;;;;;41.65;7.60;;;15.20;99.90;;;;;;5051693;28;20048;-75
2023/01/09 08:48:23;;;;;;;34.78;8.52;;;15.20;99.90;;;;;;5050259;28;20417;-71
2023/01/09 08:51:27;;;;;;;39.40;7.85;;;15.20;99.90;;;;;;5050705;28;20052;-74
2023/01/09 08:54:31;;;;;;;37.70;8.48;;;15.20;99.90;;;;;;5050817;28;20063;-73
2023/01/09 08:57:35;;;;;;;44.03;8.50;;;15.20;99.90;;;;;;5050654;28;20044;-72
2023/01/09 09:00:38;;;;;;;41.53;8.88;;;15.20;99.90;;;;;;5050670;28;20063;-73
2023/01/09 09:03:42;;;;;;;30.75;8.55;;;15.10;99.90;;;;;;5050434;28;20044;-71
2023/01/09 09:06:47;;;;;;;34.22;8.32;;;15.20;99.90;;;;;;5050150;28;20040;-70
2023/01/09 09:09:54;;;;;;;32.92;8.02;;;15.20;99.90;;;;;;5049340;28;20068;-71
2023/01/09 09:12:59;;;;;;;31.95;8.00;;;15.20;99.90;;;;;;5049585;28;20060;-73
2023/01/09 09:16:03;;;;;;;41.72;9.73;;;15.10;99.90;;;;;;5050861;28;20384;-75
2023/01/09 09:19:08;;;;;;;46.42;9.93;;;15.10;99.90;;;;;;5050161;28;20447;-74
2023/01/09 09:22:12;;;;;;;30.75;8.60;;;15.10;99.90;;;;;;5050406;28;20044;-73
2023/01/09 09:25:16;;;;;;;50.83;10.82;;;15.10;99.90;;;;;;5050297;28;20396;-73
2023/01/09 09:28:21;;;;;;;36.05;8.77;;;15.10;99.90;;;;;;5050227;28;20048;-72
2023/01/09 09:31:25;;;;;;;37.53;9.27;;;15.00;99.90;;;;;;5048952;28;20447;-72
2023/01/09 09:34:29;;;;;;;37.78;8.43;;;15.00;99.90;;;;;;5050426;28;20396;-71
2023/01/09 09:37:34;;;;;;;33.50;7.68;;;14.90;99.90;;;;;;5050509;28;20044;-73
2023/01/09 09:40:38;;;;;;;31.25;8.05;;;14.80;99.90;;;;;;5050777;28;20044;-73
2023/01/09 09:47:46;;;;;;;39.40;8.88;;;14.80;99.90;;;;;;5053883;28;20064;-75
2023/01/09 09:50:57;;;;;;;42.92;8.70;;;14.80;99.90;;;;;;5053819;28;20052;-73
2023/01/09 09:54:08;;;;;;;41.58;8.55;;;14.80;99.90;;;;;;5053710;28;20052;-73
2023/01/09 09:57:16;;;;;;;31.15;8.82;;;14.80;99.90;;;;;;5053617;28;20144;-74
2023/01/09 10:00:22;;;;;;;56.83;9.68;;;14.70;99.90;;;;;;5053479;28;20044;-74
2023/01/09 10:03:26;;;;;;;44.58;10.07;;;14.80;99.90;;;;;;5053720;28;20044;-73
2023/01/09 10:06:40;;;;;;;55.63;11.15;;;14.80;99.90;;;;;;5053469;28;20048;-72
2023/01/09 10:09:53;;;;;;;63.38;10.25;;;14.80;99.90;;;;;;5053537;28;20396;-74
2023/01/09 10:12:58;;;;;;;50.10;9.73;;;14.90;99.90;;;;;;5052473;28;20404;-73
2023/01/09 10:16:02;;;;;;;68.82;16.95;;;14.90;99.90;;;;;;5053272;28;20104;-74
2023/01/09 10:19:25;;;;;;;44.42;9.48;;;14.90;99.90;;;;;;5053374;28;20389;-74
2023/01/09 10:22:43;;;;;;;62.30;10.10;;;14.90;99.90;;;;;;5053689;28;20491;-73
2023/01/09 10:26:07;;;;;;;48.00;9.70;;;14.90;99.90;;;;;;5053520;28;20740;-73
2023/01/09 10:29:39;;;;;;;39.40;9.40;;;14.90;99.90;;;;;;5052931;28;20036;-73
2023/01/09 10:33:00;;;;;;;;;;;14.90;99.90;;;;;;5052689;28;20060;-72
2023/01/09 10:36:32;;;;;;;51.72;9.45;;;14.90;99.90;;;;;;5052849;28;19916;-73
2023/01/09 10:39:44;;;;;;;50.78;8.07;;;14.90;99.90;;;;;;5051541;28;20048;-75
2023/01/09 10:43:01;;;;;;;63.15;9.43;;;15.00;99.90;;;;;;5052787;28;20036;-73
2023/01/09 10:46:11;;;;;;;45.63;8.63;;;14.90;99.90;;;;;;5051870;28;20603;-76
2023/01/09 10:49:17;;;;;;;53.05;8.18;;;14.90;99.90;;;;;;5040156;28;20503;-73
2023/01/09 10:52:27;;;;;;;49.13;8.20;;;15.00;99.90;;;;;;5051292;28;20052;-73
2023/01/09 10:55:43;;;;;;;39.58;7.03;;;15.00;99.90;;;;;;5052494;28;20047;-73
2023/01/09 10:58:48;;;;;;;52.72;7.00;;;15.00;99.90;;;;;;5052337;28;20052;-73
2023/01/09 11:01:54;;;;;;;40.47;6.78;;;15.00;99.90;;;;;;5052530;28;20048;-73
2023/01/09 11:04:58;;;;;;;33.33;7.15;;;15.00;99.90;;;;;;5052388;28;20048;-73
2023/01/09 11:08:21;;;;;;;32.92;6.80;;;15.00;99.90;;;;;;5052095;28;20406;-69
2023/01/09 11:11:36;;;;;;;34.00;7.45;;;15.00;99.90;;;;;;5052301;28;20040;-73
2023/01/09 11:14:40;;;;;;;42.85;7.63;;;15.00;99.90;;;;;;5052531;28;20064;-71
2023/01/09 11:17:46;;;;;;;46.40;8.55;;;15.00;99.90;;;;;;5052119;28;20388;-73
2023/01/09 11:20:50;;;;;;;40.45;7.45;;;14.90;99.90;;;;;;5052573;28;20052;-70
2023/01/09 11:23:55;;;;;;;32.15;7.75;;;14.90;99.90;;;;;;5052124;28;20043;-75
2023/01/09 11:27:23;;;;;;;33.05;7.13;;;15.00;99.90;;;;;;5052224;28;20040;-74
2023/01/09 11:30:35;;;;;;;37.17;7.03;;;14.90;99.90;;;;;;5052117;28;20491;-73
2023/01/09 11:33:48;;;;;;;37.10;6.68;;;15.00;99.90;;;;;;5052079;28;20083;-72
2023/01/09 11:37:00;;;;;;;37.30;8.00;;;15.00;99.90;;;;;;5052308;28;20080;-73
2023/01/09 11:40:14;;;;;;;38.42;7.53;;;15.00;99.90;;;;;;5052036;28;20052;-70
2023/01/09 11:43:32;;;;;;;51.50;10.30;;;15.00;99.90;;;;;;5051583;28;20048;-72
2023/01/09 11:46:40;;;;;;;36.30;8.30;;;15.00;99.90;;;;;;5051316;28;20052;-73
2023/01/09 11:49:48;;;;;;;35.67;8.00;;;15.00;99.90;;;;;;5051772;28;20389;-72
2023/01/09 11:53:13;;;;;;;42.33;7.78;;;15.00;99.90;;;;;;5051515;28;20055;-72
2023/01/09 11:56:17;;;;;;;46.03;9.10;;;15.00;99.90;;;;;;5051685;28;20036;-74
2023/01/09 11:59:25;;;;;;;59.90;8.45;;;15.00;99.90;;;;;;5051498;28;20056;-74
2023/01/09 12:02:57;;;;;;;33.05;7.68;;;15.10;99.90;;;;;;5051679;28;20048;-72
2023/01/09 12:06:22;;;;;;;50.80;8.27;;;15.10;99.90;;;;;;5050143;28;20331;-73
2023/01/09 12:09:47;;;;;;;32.17;7.28;;;15.10;99.90;;;;;;5051565;28;20052;-73
2023/01/09 12:13:03;;;;;;;24.45;6.55;;;15.00;99.90;;;;;;5051533;28;20515;-72
2023/01/09 12:16:33;;;;;;;38.42;7.40;;;15.00;99.90;;;;;;5051311;28;20048;-73
2023/01/09 12:20:15;;;;;;;37.50;9.50;;;15.00;99.90;;;;;;5052397;28;20048;-73
2023/01/09 12:23:58;;;;;;;32.17;9.05;;;15.00;99.90;;;;;;5051744;28;20044;-73
2023/01/09 12:27:23;;;;;;;29.63;8.20;;;15.00;99.90;;;;;;5053853;28;20048;-72
2023/01/09 12:30:31;;;;;;;38.35;8.10;;;15.00;99.90;;;;;;5050708;28;20510;-72
2023/01/09 12:33:53;;;;;;;32.00;7.75;;;15.00;99.90;;;;;;5050891;28;20649;-73
2023/01/09 12:37:40;;;;;;;34.83;8.18;;;15.00;99.90;;;;;;5050030;28;20389;-73
2023/01/09 12:41:06;;;;;;;36.88;7.45;;;15.00;99.90;;;;;;5051114;28;20052;-74
2023/01/09 12:44:29;;;;;;;32.15;7.22;;;15.10;99.90;;;;;;5051590;28;20036;-73
2023/01/09 12:47:39;;;;;;;40.92;6.35;;;15.10;99.90;;;;;;5051144;28;20494;-73
2023/01/09 12:50:49;;;;;;;28.73;6.97;;;15.10;99.90;;;;;;5052075;28;20042;-73
2023/01/09 12:54:15;;;;;;;36.92;6.60;;;15.20;99.90;;;;;;5051327;28;20075;-73
2023/01/09 12:57:36;;;;;;;30.73;6.80;;;15.20;99.90;;;;;;5051106;28;20048;-72
2023/01/09 13:00:44;;;;;;;19.95;5.45;;;15.20;99.90;;;;;;5050794;28;20044;-71
2023/01/09 13:04:11;;;;;;;34.38;5.57;;;15.10;99.90;;;;;;5050658;28;20075;-71
2023/01/09 13:07:23;;;;;;;29.63;5.18;;;15.20;99.90;;;;;;5050413;28;20096;-71
2023/01/09 13:10:35;;;;;;;26.95;4.03;;;15.20;99.90;;;;;;5050527;28;20063;-69
2023/01/09 13:13:48;;;;;;;25.42;4.35;;;15.20;99.90;;;;;;5050384;28;20496;-71
2023/01/09 13:16:58;;;;;;;25.90;4.22;;;15.20;99.90;;;;;;5053233;28;20048;-71
2023/01/09 13:20:03;;;;;;;23.73;3.45;;;15.20;99.90;;;;;;5054493;28;20072;-72
2023/01/09 13:23:20;;;;;;;21.55;4.40;;;15.30;99.90;;;;;;5052506;28;20044;-70
2023/01/09 13:26:34;;;;;;;21.23;4.50;;;15.20;99.90;;;;;;5052196;28;20077;-72
2023/01/09 13:29:45;;;;;;;24.73;4.13;;;15.30;99.90;;;;;;5052664;28;20392;-71
2023/01/09 13:33:16;;;;;;;28.50;4.75;;;15.40;99.90;;;;;;5053125;28;20420;-73
2023/01/09 13:36:26;;;;;;;37.28;9.00;;;15.40;99.90;;;;;;5054297;28;20056;-72
2023/01/09 13:39:32;;;;;;;35.80;5.93;;;15.40;99.90;;;;;;5053900;28;20036;-72
2023/01/09 13:42:44;;;;;;;26.67;5.53;;;15.50;99.90;;;;;;5054078;28;20400;-74
2023/01/09 13:45:50;;;;;;;31.92;6.57;;;15.50;99.90;;;;;;5053832;28;20393;-71
2023/01/09 13:48:54;;;;;;;34.45;5.82;;;15.60;99.90;;;;;;5054117;28;20036;-71
2023/01/09 13:52:25;;;;;;;24.50;6.00;;;15.60;99.90;;;;;;5054275;28;20047;-71
2023/01/09 13:55:34;;;;;;;18.52;4.88;;;15.60;99.90;;;;;;5053078;28;20542;-71
2023/01/09 13:58:55;;;;;;;27.58;5.78;;;15.50;99.90;;;;;;5053950;28;20044;-70
2023/01/09 14:01:59;;;;;;;19.97;3.93;;;15.50;99.90;;;;;;5053169;28;20523;-71
2023/01/09 14:05:36;;;;;;;10.57;2.95;;;15.50;99.90;;;;;;5053913;28;20048;-70
2023/01/09 14:08:40;;;;;;;15.15;3.17;;;15.50;99.90;;;;;;5053803;28;20131;-69
2023/01/09 14:11:46;;;;;;;13.38;3.42;;;15.50;99.90;;;;;;5054071;28;20048;-72
2023/01/09 14:14:52;;;;;;;24.08;4.32;;;15.50;99.90;;;;;;5053813;28;20052;-70
2023/01/09 14:18:00;;;;;;;17.00;3.85;;;15.50;99.90;;;;;;5053311;28;20100;-71
2023/01/09 14:21:06;;;;;;;19.40;3.63;;;15.40;99.90;;;;;;5053911;28;20044;-71
2023/01/09 14:24:28;;;;;;;15.02;3.78;;;15.40;99.90;;;;;;5053306;28;20039;-71
2023/01/09 14:27:53;;;;;;;15.48;4.28;;;15.50;99.90;;;;;;5052500;28;20040;-71
2023/01/09 14:30:58;;;;;;;15.32;4.35;;;15.50;99.90;;;;;;5052888;28;20265;-71
2023/01/09 14:34:28;;;;;;;15.98;4.05;;;15.60;99.90;;;;;;5053366;28;20102;-71
2023/01/09 14:37:34;;;;;;;19.75;4.93;;;15.60;99.90;;;;;;5052107;28;20044;-71
2023/01/09 14:40:46;;;;;;;25.58;4.13;;;15.60;99.90;;;;;;5052768;28;20052;-71
2023/01/09 14:44:16;;;;;;;12.45;3.05;;;15.60;99.90;;;;;;5053527;28;20036;-71
2023/01/09 14:47:30;;;;;;;27.83;5.30;;;15.50;99.90;;;;;;5053721;28;20040;-71
2023/01/09 14:50:55;;;;;;;24.60;3.85;;;15.50;99.90;;;;;;5052733;28;20392;-71
2023/01/09 14:54:13;;;;;;;21.73;4.93;;;15.50;99.90;;;;;;5053828;28;20112;-70
2023/01/09 14:57:29;;;;;;;20.80;3.75;;;15.40;99.90;;;;;;5052612;28;20036;-71
2023/01/09 15:00:34;;;;;;;17.80;3.75;;;15.40;99.90;;;;;;5052282;28;20502;-72
2023/01/09 15:03:51;;;;;;;19.17;4.10;;;15.40;99.90;;;;;;5051843;28;20051;-72
2023/01/09 15:06:57;;;;;;;27.45;4.97;;;15.40;99.90;;;;;;5056686;28;20048;-71
2023/01/09 15:10:03;;;;;;;16.52;3.63;;;15.40;99.90;;;;;;5054729;28;20048;-72
2023/01/09 15:13:16;;;;;;;22.80;4.57;;;15.40;99.90;;;;;;5051688;28;20420;-71
2023/01/09 15:16:23;;;;;;;27.27;5.28;;;15.30;99.90;;;;;;5052577;28;20044;-71
2023/01/09 15:19:33;;;;;;;21.80;4.35;;;15.40;99.90;;;;;;5054555;28;20048;-71
2023/01/09 15:22:37;;;;;;;29.75;5.57;;;15.30;99.90;;;;;;5052887;28;20051;-71
2023/01/09 15:25:41;;;;;;;15.45;4.13;;;15.30;99.90;;;;;;5051315;28;20048;-72
2023/01/09 15:28:45;;;;;;;23.80;4.43;;;15.40;99.90;;;;;;5052510;28;20499;-70
2023/01/09 15:32:17;;;;;;;20.77;3.97;;;15.30;99.90;;;;;;5053797;28;20056;-72
2023/01/09 15:35:21;;;;;;;25.88;5.70;;;15.30;99.90;;;;;;5041562;28;20075;-71
2023/01/09 15:38:27;;;;;;;17.10;4.13;;;15.20;99.90;;;;;;5052204;28;20108;-72
2023/01/09 15:44:56;;;;;;;25.48;4.82;;;15.10;99.90;;;;;;5052437;28;20080;-71
2023/01/09 15:48:24;;;;;;;17.40;4.60;;;15.00;99.90;;;;;;5053727;28;20393;-72
2023/01/09 15:51:31;;;;;;;20.23;4.38;;;15.00;99.90;;;;;;5052410;28;20040;-71
2023/01/09 15:54:36;;;;;;;20.10;4.40;;;14.80;99.90;;;;;;5052715;28;20063;-73
2023/01/09 15:57:52;;;;;;;19.73;4.65;;;14.80;99.90;;;;;;5052825;28;20044;-75
2023/01/09 16:01:28;;;;;;;19.90;5.35;;;14.70;99.90;;;;;;5053036;28;20044;-72
2023/01/09 16:04:39;;;;;;;25.10;6.18;;;14.60;99.90;;;;;;5056174;28;20048;-72
2023/01/09 16:07:49;;;;;;;26.48;6.35;;;14.60;99.90;;;;;;5050965;28;20104;-73
2023/01/09 16:11:06;;;;;;;22.85;6.10;;;14.50;99.90;;;;;;5051809;28;20044;-69
2023/01/09 16:14:21;;;;;;;17.55;6.13;;;14.50;99.90;;;;;;5051010;28;20052;-71
2023/01/09 16:17:26;;;;;;;19.45;6.22;;;14.50;99.90;;;;;;5051162;28;20048;-75
2023/01/09 16:20:33;;;;;;;19.65;6.07;;;14.40;99.90;;;;;;5051372;28;20060;-73
2023/01/09 16:23:37;;;;;;;15.95;5.82;;;14.50;99.90;;;;;;5051084;28;20044;-69
2023/01/09 16:26:44;;;;;;;16.65;6.45;;;14.60;99.90;;;;;;5050882;28;20483;-74
2023/01/09 16:29:49;;;;;;;29.20;8.77;;;14.60;99.90;;;;;;5050922;28;20040;-73